Bayonne, New Jersey
Current Conditions -  °F | °C
As of 10:51 AM on Thursday 30 Oct 2014 (Local Time) from KEWR Reporting Station
Scattered Clouds Scattered Clouds  
Wind Chill: 56°   Ceiling: Unl
Heat Index: 56°   Visibility: 10mi
Dew Point: 39°   Wind: 12mph
Humidity: 53%   Direction: 340°NNW
Pressure: 30"   Gusts: NA
Location:  40.67°N, 74.12°W
Report Text: KEWR 301451Z 34010KT 10SM FEW035 SCT065 SCT250 13/04 A3000 RMK AO2 SLP159 T01330039 50005
Loading
Personal Weather Stations






























Interactive Weather Map
Tropical Storm Tracking
New forecast layout! Learn more

10-Day Weather Forecast

Advertisements
Track Severe Weather on mobile